Map

Track Data

SID SEASON NUMBER BASIN SUBBASIN NAME ISO_TIME NATURE LAT LON WMO_WIND WMO_PRES WMO_AGENCY TRACK_TYPE DIST2LAND LANDFALL IFLAG USA_AGENCY USA_ATCF_ID USA_LAT USA_LON USA_RECORD USA_STATUS USA_WIND USA_PRES USA_SSHS USA_R34_NE USA_R34_SE USA_R34_SW USA_R34_NW USA_R50_NE USA_R50_SE USA_R50_SW USA_R50_NW USA_R64_NE USA_R64_SE USA_R64_SW USA_R64_NW USA_POCI USA_ROCI USA_RMW USA_EYE TOKYO_LAT TOKYO_LON TOKYO_GRADE TOKYO_WIND TOKYO_PRES TOKYO_R50_DIR TOKYO_R50_LONG TOKYO_R50_SHORT TOKYO_R30_DIR TOKYO_R30_LONG TOKYO_R30_SHORT TOKYO_LAND CMA_LAT CMA_LON CMA_CAT CMA_WIND CMA_PRES HKO_LAT HKO_LON HKO_CAT HKO_WIND HKO_PRES NEWDELHI_LAT NEWDELHI_LON NEWDELHI_GRADE NEWDELHI_WIND NEWDELHI_PRES NEWDELHI_CI NEWDELHI_DP NEWDELHI_POCI REUNION_LAT REUNION_LON REUNION_TYPE REUNION_WIND REUNION_PRES REUNION_TNUM REUNION_CI REUNION_RMW REUNION_R34_NE REUNION_R34_SE REUNION_R34_SW REUNION_R34_NW REUNION_R50_NE REUNION_R50_SE REUNION_R50_SW REUNION_R50_NW REUNION_R64_NE REUNION_R64_SE REUNION_R64_SW REUNION_R64_NW BOM_LAT BOM_LON BOM_TYPE BOM_WIND BOM_PRES BOM_TNUM BOM_CI BOM_RMW BOM_R34_NE BOM_R34_SE BOM_R34_SW BOM_R34_NW BOM_R50_NE BOM_R50_SE BOM_R50_SW BOM_R50_NW BOM_R64_NE BOM_R64_SE BOM_R64_SW BOM_R64_NW BOM_ROCI BOM_POCI BOM_EYE BOM_POS_METHOD BOM_PRES_METHOD NADI_LAT NADI_LON NADI_CAT NADI_WIND NADI_PRES WELLINGTON_LAT WELLINGTON_LON WELLINGTON_WIND WELLINGTON_PRES DS824_LAT DS824_LON DS824_STAGE DS824_WIND DS824_PRES TD9636_LAT TD9636_LON TD9636_STAGE TD9636_WIND TD9636_PRES TD9635_LAT TD9635_LON TD9635_WIND TD9635_PRES TD9635_ROCI NEUMANN_LAT NEUMANN_LON NEUMANN_CLASS NEUMANN_WIND NEUMANN_PRES MLC_LAT MLC_LON MLC_CLASS MLC_WIND MLC_PRES USA_GUST BOM_GUST BOM_GUST_PER REUNION_GUST REUNION_GUST_PER USA_SEAHGT USA_SEARAD_NE USA_SEARAD_SE USA_SEARAD_SW USA_SEARAD_NW STORM_SPEED STORM_DIR
1887280N11085 1887 59 NI BB NOT_NAMED 1887-10-07 00:00:00 TS 10.7000 85.1000 main 480 462 _________O____ -1 10.7000 85.1000 TC 45 3 279
1887280N11085 1887 59 NI BB NOT_NAMED 1887-10-07 03:00:00 TS 10.7267 84.9333 main 462 450 _________PO___ -1 10.7400 84.8500 TC 45 10.7000 85.1000 3 4 283
1887280N11085 1887 59 NI BB NOT_NAMED 1887-10-07 06:00:00 TS 10.7889 84.6932 main 450 431 _________OP___ -1 10.8000 84.6000 TC 45 10.7721 84.8330 3 5 287
1887280N11085 1887 59 NI BB NOT_NAMED 1887-10-07 09:00:00 TS 10.8723 84.4454 main 428 417 _________PP___ -1 10.8925 84.3500 TC 45 10.8453 84.5727 3 5 290
1887280N11085 1887 59 NI BB NOT_NAMED 1887-10-07 12:00:00 TS 10.9604 84.2130 main 417 398 _________OP___ -1 11.0000 84.1000 TC 45 10.9209 84.3261 3 5 291
1887280N11085 1887 59 NI BB NOT_NAMED 1887-10-07 15:00:00 TS 11.0500 83.9712 main 398 385 _________PO___ -1 11.1000 83.8425 TC 45 11.0000 84.1000 3 5 292
1887280N11085 1887 59 NI BB NOT_NAMED 1887-10-07 18:00:00 TS 11.1422 83.7480 main 376 373 _________OP___ -1 11.2000 83.6000 TC 45 11.0844 83.8961 3 4 294
1887280N11085 1887 59 NI BB NOT_NAMED 1887-10-07 21:00:00 TS 11.2347 83.5586 main 373 362 _________PP___ -1 11.2924 83.4224 TC 45 11.1771 83.6947 3 5 296
1887280N11085 1887 59 NI BB NOT_NAMED 1887-10-08 00:00:00 TS 11.3406 83.3355 main 353 324 _________OP___ -1 11.4000 83.2000 TC 45 11.2812 83.4710 3 6 294
1887280N11085 1887 59 NI BB NOT_NAMED 1887-10-08 03:00:00 TS 11.4713 83.0150 main 324 279 _________PO___ -1 11.5425 82.8300 TC 45 11.4000 83.2000 3 7 291
1887280N11085 1887 59 NI BB NOT_NAMED 1887-10-08 06:00:00 TS 11.6138 82.6251 main 279 235 _________OP___ -1 11.7000 82.4000 TC 45 11.5276 82.8503 3 8 290
1887280N11085 1887 59 NI BB NOT_NAMED 1887-10-08 09:00:00 TS 11.7563 82.2262 main 231 186 _________PP___ -1 11.8424 81.9999 TC 45 11.6702 82.4524 3 9 291
1887280N11085 1887 59 NI BB NOT_NAMED 1887-10-08 12:00:00 TS 11.9138 81.8142 main 186 137 _________OP___ -1 12.0000 81.6000 TC 45 11.8276 82.0283 3 9 293
1887280N11085 1887 59 NI BB NOT_NAMED 1887-10-08 15:00:00 TS 12.0962 81.4000 main 137 89 _________PO___ -1 12.1924 81.2000 TC 41 12.0000 81.6000 3 9 295
1887280N11085 1887 59 NI BB NOT_NAMED 1887-10-08 18:00:00 TS 12.2802 81.0280 main 89 55 _________OP___ -1 12.4000 80.8000 TC 37 12.1604 81.2559 3 8 297
1887280N11085 1887 59 NI BB NOT_NAMED 1887-10-08 21:00:00 TS 12.4579 80.6778 main 54 10 _________PP___ -1 12.5771 80.4521 TC 33 12.3386 80.9035 3 9 297
1887280N11085 1887 59 NI BB NOT_NAMED 1887-10-09 00:00:00 TS 12.6738 80.2497 main 0 0 _________OP___ -1 12.8000 80.0000 TC 30 12.5476 80.4993 3 11 297
1887280N11085 1887 59 NI BB NOT_NAMED 1887-10-09 03:00:00 TS 12.9638 79.6513 main 0 0 _________PO___ -1 13.1277 79.3026 TC 30 12.8000 80.0000 1 14 296
1887280N11085 1887 59 NI BB NOT_NAMED 1887-10-09 06:00:00 TS 13.3039 78.9155 main 0 0 _________OP___ -1 13.5000 78.5000 TC 30 13.1078 79.3309 1 16 295
1887280N11085 1887 59 NI BB NOT_NAMED 1887-10-09 09:00:00 TS 13.6569 78.1516 main 0 0 _________PP___ -1 13.8574 77.7349 TC 30 13.4563 78.5682 1 17 296
1887280N11085 1887 59 NI AS NOT_NAMED 1887-10-09 12:00:00 TS 14.0133 77.3856 main 0 0 _________OP___ -1 14.2000 77.0000 TC 30 13.8265 77.7713 1 16 296
1887280N11085 1887 59 NI AS NOT_NAMED 1887-10-09 15:00:00 TS 14.3461 76.6636 main 0 0 _________PO___ -1 14.4922 76.3271 TC 30 14.2000 77.0000 1 15 297
1887280N11085 1887 59 NI AS NOT_NAMED 1887-10-09 18:00:00 TS 14.6933 75.9793 main 0 0 _________OP___ -1 14.8000 75.7000 TC 30 14.5866 76.2586 1 15 300
1887280N11085 1887 59 NI AS NOT_NAMED 1887-10-09 21:00:00 TS 15.0990 75.2946 main 0 0 _________PP___ -1 15.2302 75.0255 TC 30 14.9678 75.5637 1 14 302
1887280N11085 1887 59 NI AS NOT_NAMED 1887-10-10 00:00:00 TS 15.4575 74.7309 main 0 0 _________OP___ -1 15.6000 74.5000 TC 30 15.3150 74.9618 1 10 303
1887280N11085 1887 59 NI AS NOT_NAMED 1887-10-10 03:00:00 TS 15.6686 74.3873 main 0 0 _________PO___ -1 15.7372 74.2746 TC 30 15.6000 74.5000 1 6 304
1887280N11085 1887 59 NI AS NOT_NAMED 1887-10-10 06:00:00 TS 15.7922 74.2110 main 0 0 _________OP___ -1 15.8000 74.2000 TC 30 15.7845 74.2219 1 4 312
1887280N11085 1887 59 NI AS NOT_NAMED 1887-10-10 09:00:00 TS 15.9256 74.0881 main 0 0 _________PP___ -1 15.9425 74.0925 TC 30 15.9087 74.0836 1 3 324
1887280N11085 1887 59 NI AS NOT_NAMED 1887-10-10 12:00:00 TS 16.0518 74.0143 main 0 0 _________OP___ -1 16.1000 74.0000 TC 30 16.0036 74.0286 1 3 331
1887280N11085 1887 59 NI AS NOT_NAMED 1887-10-10 15:00:00 TS 16.1750 73.9463 main 0 0 _________PO___ -1 16.2500 73.8925 TC 30 16.1000 74.0000 1 3 329
1887280N11085 1887 59 NI AS NOT_NAMED 1887-10-10 18:00:00 TS 16.3194 73.8512 main 0 0 _________OP___ -1 16.4000 73.8000 TC 30 16.2387 73.9025 1 3 331
1887280N11085 1887 59 NI AS NOT_NAMED 1887-10-10 21:00:00 TS 16.4675 73.7812 main 0 0 _________PP___ -1 16.5500 73.7425 TC 30 16.3850 73.8200 1 3 339
1887280N11085 1887 59 NI AS NOT_NAMED 1887-10-11 00:00:00 TS 16.6194 73.7262 main 0 0 _________OP___ -1 16.7000 73.7000 TC 30 16.5387 73.7525 1 3 341
1887280N11085 1887 59 NI AS NOT_NAMED 1887-10-11 03:00:00 TS 16.7713 73.6712 main 0 0 _________PO___ -1 16.8425 73.6425 TC 30 16.7000 73.7000 1 3 343
1887280N11085 1887 59 NI AS NOT_NAMED 1887-10-11 06:00:00 TS 16.9319 73.6262 main 0 0 _________OP___ -1 17.0000 73.6000 TC 30 16.8637 73.6525 1 4 351
1887280N11085 1887 59 NI AS NOT_NAMED 1887-10-11 09:00:00 TS 17.1137 73.6062 main 0 0 _________PP___ -1 17.1925 73.5925 TC 30 17.0350 73.6200 1 4 358
1887280N11085 1887 59 NI AS NOT_NAMED 1887-10-11 12:00:00 TS 17.3069 73.6013 main 0 0 _________OP___ -1 17.4000 73.6000 TC 30 17.2137 73.6025 1 4 0
1887280N11085 1887 59 NI AS NOT_NAMED 1887-10-11 15:00:00 TS 17.5000 73.5963 main 0 0 _________PO___ -1 17.6000 73.5925 TC 30 17.4000 73.6000 1 4 1
1887280N11085 1887 59 NI AS NOT_NAMED 1887-10-11 18:00:00 TS 17.7005 73.6033 main 0 0 _________OP___ -1 17.8000 73.6000 TC 30 17.6009 73.6065 1 4 5
1887280N11085 1887 59 NI AS NOT_NAMED 1887-10-11 21:00:00 TS 17.9075 73.6350 main 0 0 _________PP___ -1 18.0075 73.6425 TC 30 17.8075 73.6275 1 4 10
1887280N11085 1887 59 NI AS NOT_NAMED 1887-10-12 00:00:00 TS 18.1052 73.6798 main 0 0 _________OP___ -1 18.2000 73.7000 TC 30 18.0103 73.6597 1 4 13
1887280N11085 1887 59 NI AS NOT_NAMED 1887-10-12 03:00:00 TS 18.2787 73.7250 main 0 0 _________PO___ -1 18.3575 73.7500 TC 30 18.2000 73.7000 1 3 14
1887280N11085 1887 59 NI AS NOT_NAMED 1887-10-12 06:00:00 TS 18.4281 73.7674 main 0 0 _________OP___ -1 18.5000 73.8000 TC 30 18.3562 73.7348 1 3 16
1887280N11085 1887 59 NI AS NOT_NAMED 1887-10-12 09:00:00 TS 18.5712 73.8101 main 0 0 _________PP___ -1 18.6425 73.8425 TC 30 18.5000 73.7776 1 3 18
1887280N11085 1887 59 NI AS NOT_NAMED 1887-10-12 12:00:00 TS 18.7219 73.8658 main 0 0 _________OP___ -1 18.8000 73.9000 TC 30 18.6437 73.8317 1 4 22
1887280N11085 1887 59 NI AS NOT_NAMED 1887-10-12 15:00:00 TS 18.8963 73.9462 main 0 0 _________PO___ -1 18.9925 73.9925 TC 30 18.8000 73.9000 1 3 19
1887280N11085 1887 59 NI AS NOT_NAMED 1887-10-12 18:00:00 TS 19.0475 73.9856 main 0 0 _________OP___ -1 19.2000 74.1000 TC 30 18.8950 73.8712 1 3 10
1887280N11085 1887 59 NI AS NOT_NAMED 1887-10-12 21:00:00 TS 19.1636 73.9887 main 0 0 _________PP___ -1 19.3095 74.1039 TC 30 19.0177 73.8734 1 4 22
1887280N11085 1887 59 NI AS NOT_NAMED 1887-10-13 00:00:00 TS 19.4158 74.1444 main 0 0 _________OP___ -1 19.6000 74.3000 TC 30 19.2316 73.9888 1 10 36
1887280N11085 1887 59 NI AS NOT_NAMED 1887-10-13 03:00:00 TS 19.9626 74.6145 main 0 0 _________PO___ -1 20.3253 74.9291 TC 30 19.6000 74.3000 1 17 41
1887280N11085 1887 59 NI AS NOT_NAMED 1887-10-13 06:00:00 TS 20.7128 75.3463 main 0 0 _________OP___ -1 21.2000 75.8000 TC 30 20.2257 74.8925 1 21 44
1887280N11085 1887 59 NI AS NOT_NAMED 1887-10-13 09:00:00 TS 21.4633 76.1839 main 0 0 _________PP___ -1 21.9298 76.6780 TC 30 20.9969 75.6898 1 22 48
1887280N11085 1887 59 NI AS NOT_NAMED 1887-10-13 12:00:00 TS 22.2096 77.1090 main 0 0 _________OP___ -1 22.6000 77.6000 TC 30 21.8193 76.6180 1 23 50
1887280N11085 1887 59 NI BB NOT_NAMED 1887-10-13 15:00:00 TS 22.9146 78.0430 main 0 0 _________PO___ -1 23.2292 78.4860 TC 30 22.6000 77.6000 1 21 52
1887280N11085 1887 59 NI BB NOT_NAMED 1887-10-13 18:00:00 TS 23.4963 78.9259 main 0 0 _________OP___ -1 23.8000 79.4000 TC 30 23.2686 78.5703 1 20 56
1887280N11085 1887 59 NI BB NOT_NAMED 1887-10-13 21:00:00 TS 24.0288 79.8643 main 0 0 _________PP___ -1 24.3166 80.3784 TC 30 23.8369 79.5216 1 20 59
1887280N11085 1887 59 NI BB NOT_NAMED 1887-10-14 00:00:00 TS 24.4913 80.7747 main 0 0 _________OP___ -1 24.8000 81.4000 TC 30 24.3369 80.4620 1 16 61
1887280N11085 1887 59 NI BB NOT_NAMED 1887-10-14 03:00:00 NR 24.8000 81.4000 main 0 __________O___ -1 TC 24.8000 81.4000 1 13 61

About IBTrACS Database

This database is a web-friendly format of International Best Track Archive for Climate Stewardship (IBTrACS), a global best track data archive curated by NOAA dating back to 1842.

Updated: 2021-10-08